Attica, OH

8:19 PM EST on February 28, 2015 (GMT -0500)
City of Willard | Change Station
CLOSE
Current Station
Personal Weather Station
Location: Willard, OH
Elevation: 928 ft
Nearby Weather Stations

Elev 928 ft 41.05 °N, 82.73 °W | Updated 3 minutes ago

Clear
Clear
17.4 °F
Feels Like 17 °F
N
2.7
Wind Variable Wind from ENE

Today
High -- | Low -- °F
--% Chance of Precip.
Yesterday
High -- | Low -- °F
Precip. -- in
7:07 AM 6:21 PM
Waxing Gibbous, 81% visible
Pressure 30.65 in
Visibility 10.0 miles
Clouds Clear
Windchill 17 °F
Dew Point 3 °F
Humidity 53%
Rainfall 0.00 in
Snow Depth Not available.
UV 0 out of 12
Pollen .40 out of 12
Air Quality Not available.
Flu Activity Not available.
METAR KMFD 010052Z 10006KT 10SM CLR M08/M16 A3056 RMK AO2 SLP379 T10831161

More Conditions Fewer Conditions

Pressure 30.65 in
Visibility 10.0 miles
Clouds Clear
Windchill 17 °F
Dew Point 3 °F
Humidity 53%
Rainfall 0.00 in
Snow Depth Not available.
UV 0 out of 12
Pollen .40 out of 12
Air Quality Not available.
Flu Activity Not available.
METAR KMFD 010052Z 10006KT 10SM CLR M08/M16 A3056 RMK AO2 SLP379 T10831161

More Conditions Fewer Conditions

10-Day Weather Forecast

Almanac

Astronomy

Feb. 28, 2015 Rise Set
Actual Time
Civil Twilight
Nautical Twilight
Astronomical Twilight
Moon
Length of Visible Light
Length of Day
Tomorrow will be .
, % of the Moon is Illuminated

Today's Extremes

State Highs State Lows

Community

WunderPhotos

Upload Photos

1,801,220 photos uploaded!

WunderBlogs® & News

Nearby

Air Quality

  Air Quality AQ Index Pollutant
Not available.

Snow Depth

Station Depth Elevation

Earthquake Activity

City Distance Mag. Time & Date
Minimum magnitude displayed is 2.5.

Coastal Water Temperatures

Place Temperature

Nearby Weather Stations